Terminal Aerodrome Forecast
Issued by NWS

Home | Current Version | Previous Version | Text Only | Print | Product List | Glossary On
Versions: 1 2 3 4 5 6 7 8 9 10 11 12 13 14
000
FTUS45 KGJT 270535
TAFDRO
TAF
KDRO 270535Z 2706/2806 36004KT P6SM FEW130
     FM271600 25004KT P6SM FEW140
     FM271900 24006G15KT P6SM SCT120
     FM272200 28009KT P6SM VCTS BKN100CB
     FM280000 29008KT P6SM BKN120
     FM280400 06006KT P6SM BKN110=

USA.gov is the U.S. government's official web portal to all federal, state and local government web resources and services.